createdAt,value
2022-10-15T00:01:26.157Z,96736.00
2022-10-15T00:03:53.174Z,96724.00
2022-10-15T00:06:21.709Z,96726.00
2022-10-15T00:08:49.564Z,96739.00
2022-10-15T00:11:20.332Z,96735.00
2022-10-15T00:13:49.330Z,96739.00
2022-10-15T00:16:22.905Z,96741.00
2022-10-15T00:18:51.676Z,96739.00
2022-10-15T00:21:21.301Z,96747.00
2022-10-15T00:23:49.656Z,96728.00
2022-10-15T00:26:24.224Z,96734.00
2022-10-15T00:28:55.869Z,96723.00
2022-10-15T00:31:26.295Z,96716.00
2022-10-15T00:33:57.758Z,96724.00
2022-10-15T00:36:29.280Z,96716.00
2022-10-15T00:38:56.848Z,96723.00
2022-10-15T00:41:30.481Z,96733.00
2022-10-15T00:44:29.428Z,96715.00
2022-10-15T00:47:04.848Z,96722.00
2022-10-15T00:49:39.361Z,96722.00
2022-10-15T00:52:19.160Z,96720.00
2022-10-15T00:55:15.181Z,96720.00
2022-10-15T00:57:47.863Z,96716.00
2022-10-15T01:00:17.153Z,96717.00
2022-10-15T01:02:46.150Z,96711.00
2022-10-15T01:05:17.196Z,96718.00
2022-10-15T01:07:44.267Z,96714.00
2022-10-15T01:10:12.305Z,96694.00
2022-10-15T01:12:56.042Z,96699.00
2022-10-15T01:15:55.557Z,96692.00
2022-10-15T01:18:50.696Z,96696.00
2022-10-15T01:21:40.144Z,96696.00
2022-10-15T01:25:03.382Z,96673.00
2022-10-15T01:27:41.685Z,96675.00
2022-10-15T01:30:31.967Z,96668.00
2022-10-15T01:33:50.044Z,96676.00
2022-10-15T01:36:42.076Z,96669.00
2022-10-15T01:39:39.369Z,96689.00
2022-10-15T01:42:33.960Z,96692.00
2022-10-15T01:45:10.500Z,96694.00
2022-10-15T01:48:12.922Z,96690.00
2022-10-15T01:50:48.348Z,96700.00
2022-10-15T01:53:26.145Z,96699.00
2022-10-15T01:56:03.402Z,96694.00
2022-10-15T01:58:31.379Z,96689.00
2022-10-15T02:00:59.972Z,96696.00
2022-10-15T02:03:27.076Z,96696.00
2022-10-15T02:06:10.496Z,96693.00
2022-10-15T02:08:54.052Z,96687.00
2022-10-15T02:11:21.341Z,96685.00
2022-10-15T02:14:04.837Z,96684.00
2022-10-15T02:16:49.636Z,96690.00
2022-10-15T02:19:35.625Z,96682.00
2022-10-15T02:22:16.933Z,96678.00
2022-10-15T02:24:55.925Z,96677.00
2022-10-15T02:27:26.872Z,96663.00
2022-10-15T02:29:56.989Z,96673.00
2022-10-15T02:32:26.886Z,96670.00
2022-10-15T02:34:55.842Z,96665.00
2022-10-15T02:37:28.197Z,96671.00
2022-10-15T02:39:55.260Z,96681.00
2022-10-15T02:42:24.981Z,96679.00
2022-10-15T02:44:52.347Z,96682.00
2022-10-15T02:47:19.526Z,96671.00
2022-10-15T02:49:47.157Z,96687.00
2022-10-15T02:52:14.310Z,96692.00
2022-10-15T02:54:41.739Z,96685.00
2022-10-15T02:57:08.734Z,96676.00
2022-10-15T02:59:35.674Z,96685.00
2022-10-15T03:02:03.008Z,96699.00
2022-10-15T03:04:31.637Z,96706.00
2022-10-15T03:06:58.930Z,96702.00
2022-10-15T03:09:25.952Z,96684.00
2022-10-15T03:11:53.027Z,96684.00
2022-10-15T03:14:20.579Z,96688.00
2022-10-15T03:16:47.416Z,96697.00
2022-10-15T03:19:14.486Z,96693.00
2022-10-15T03:21:42.019Z,96681.00
2022-10-15T03:24:12.497Z,96689.00
2022-10-15T03:26:39.812Z,96699.00
2022-10-15T03:29:06.676Z,96707.00
2022-10-15T03:31:43.716Z,96695.00
2022-10-15T03:34:10.586Z,96688.00
2022-10-15T03:36:37.419Z,96704.00
2022-10-15T03:39:09.194Z,96696.00
2022-10-15T03:41:38.569Z,96680.00
2022-10-15T03:44:07.603Z,96684.00
2022-10-15T03:46:36.855Z,96688.00
2022-10-15T03:49:03.825Z,96681.00
2022-10-15T03:51:31.655Z,96678.00
2022-10-15T03:54:05.340Z,96684.00
2022-10-15T03:56:38.298Z,96678.00
2022-10-15T03:59:21.017Z,96681.00
2022-10-15T04:01:56.132Z,96699.00
2022-10-15T04:04:24.607Z,96686.00
2022-10-15T04:06:51.978Z,96683.00
2022-10-15T04:09:19.884Z,96688.00
2022-10-15T04:11:46.760Z,96690.00
2022-10-15T04:14:14.216Z,96680.00
2022-10-15T04:16:42.297Z,96663.00
2022-10-15T04:19:16.110Z,96679.00
2022-10-15T04:21:47.276Z,96667.00
2022-10-15T04:24:28.408Z,96683.00
2022-10-15T04:26:55.543Z,96690.00
2022-10-15T04:29:23.012Z,96689.00
2022-10-15T04:31:50.498Z,96695.00
2022-10-15T04:34:17.523Z,96696.00
2022-10-15T04:36:44.673Z,96700.00
2022-10-15T04:39:16.164Z,96674.00
2022-10-15T04:41:45.415Z,96699.00
2022-10-15T04:44:24.722Z,96701.00
2022-10-15T04:46:56.161Z,96706.00
2022-10-15T04:49:37.436Z,96696.00
2022-10-15T04:52:12.583Z,96697.00
2022-10-15T04:54:51.114Z,96697.00
2022-10-15T04:57:18.959Z,96690.00
2022-10-15T04:59:46.303Z,96699.00
2022-10-15T05:02:36.161Z,96682.00
2022-10-15T05:05:22.952Z,96685.00
2022-10-15T05:08:05.061Z,96677.00
2022-10-15T05:10:55.223Z,96685.00
2022-10-15T05:13:23.188Z,96682.00
2022-10-15T05:15:50.566Z,96685.00
2022-10-15T05:18:19.405Z,96661.00
2022-10-15T05:20:51.504Z,96674.00
2022-10-15T05:23:20.346Z,96683.00
2022-10-15T05:26:12.998Z,96686.00
2022-10-15T05:28:40.734Z,96676.00
2022-10-15T05:31:18.950Z,96678.00
2022-10-15T05:33:48.908Z,96697.00
2022-10-15T05:36:27.931Z,96681.00
2022-10-15T05:39:00.235Z,96704.00
2022-10-15T05:41:29.853Z,96709.00
2022-10-15T05:43:59.437Z,96710.00
2022-10-15T05:46:29.767Z,96718.00
2022-10-15T05:48:58.729Z,96728.00
2022-10-15T05:51:28.636Z,96726.00
2022-10-15T05:54:04.595Z,96733.00
2022-10-15T05:56:31.594Z,96748.00
2022-10-15T05:58:59.105Z,96725.00
2022-10-15T06:01:28.470Z,96732.00
2022-10-15T06:03:55.653Z,96751.00
2022-10-15T06:06:26.559Z,96748.00
2022-10-15T06:08:55.044Z,96735.00
2022-10-15T06:11:24.829Z,96727.00
2022-10-15T06:13:51.829Z,96729.00
2022-10-15T06:16:22.773Z,96726.00
2022-10-15T06:18:53.708Z,96734.00
2022-10-15T06:21:21.262Z,96749.00
2022-10-15T06:23:48.723Z,96749.00
2022-10-15T06:26:17.724Z,96749.00
2022-10-15T06:28:48.579Z,96736.00
2022-10-15T06:31:15.647Z,96701.00
2022-10-15T06:33:45.847Z,96745.00
2022-10-15T06:36:16.250Z,96740.00
2022-10-15T06:38:46.717Z,96749.00
2022-10-15T06:41:14.278Z,96749.00
2022-10-15T06:43:41.863Z,96749.00
2022-10-15T06:46:10.495Z,96736.00
2022-10-15T06:48:38.264Z,96727.00
2022-10-15T06:51:06.582Z,96743.00
2022-10-15T06:53:34.274Z,96752.00
2022-10-15T06:56:04.876Z,96752.00
2022-10-15T06:58:37.469Z,96745.00
2022-10-15T07:01:07.895Z,96750.00
2022-10-15T07:03:36.012Z,96756.00
2022-10-15T07:06:09.436Z,96751.00
2022-10-15T07:08:36.983Z,96749.00
2022-10-15T07:11:07.222Z,96763.00
2022-10-15T07:13:34.281Z,96750.00
2022-10-15T07:16:10.544Z,96761.00
2022-10-15T07:18:38.708Z,96756.00
2022-10-15T07:21:08.215Z,96763.00
2022-10-15T07:23:35.428Z,96766.00
2022-10-15T07:26:02.745Z,96779.00
2022-10-15T07:28:29.912Z,96777.00
2022-10-15T07:31:04.407Z,96779.00
2022-10-15T07:33:34.631Z,96787.00
2022-10-15T07:36:09.011Z,96793.00
2022-10-15T07:38:36.963Z,96795.00
2022-10-15T07:41:05.074Z,96786.00
2022-10-15T07:43:40.465Z,96782.00
2022-10-15T07:46:07.497Z,96785.00
2022-10-15T07:48:34.365Z,96790.00
2022-10-15T07:51:07.966Z,96802.00
2022-10-15T07:53:35.355Z,96791.00
2022-10-15T07:56:09.212Z,96803.00
2022-10-15T07:58:38.296Z,96796.00
2022-10-15T08:01:07.839Z,96792.00
2022-10-15T08:03:35.990Z,96795.00
2022-10-15T08:06:06.367Z,96801.00
2022-10-15T08:08:35.221Z,96802.00
2022-10-15T08:11:15.252Z,96810.00
2022-10-15T08:13:44.132Z,96798.00
2022-10-15T08:16:13.964Z,96792.00
2022-10-15T08:18:43.074Z,96805.00
2022-10-15T08:21:12.108Z,96803.00
2022-10-15T08:23:39.294Z,96777.00
2022-10-15T08:26:06.582Z,96777.00
2022-10-15T08:28:35.350Z,96780.00
2022-10-15T08:31:05.646Z,96793.00
2022-10-15T08:33:35.544Z,96774.00
2022-10-15T08:36:05.556Z,96773.00
2022-10-15T08:38:33.315Z,96783.00
2022-10-15T08:41:02.695Z,96787.00
2022-10-15T08:43:41.213Z,96787.00
2022-10-15T08:46:32.669Z,96776.00
2022-10-15T08:49:01.654Z,96785.00
2022-10-15T08:51:54.568Z,96768.00
2022-10-15T08:54:22.063Z,96773.00
2022-10-15T08:57:19.473Z,96776.00
2022-10-15T09:00:24.826Z,96772.00
2022-10-15T09:03:42.181Z,96766.00
2022-10-15T09:06:27.577Z,96773.00
2022-10-15T09:09:13.757Z,96771.00
2022-10-15T09:12:05.362Z,96773.00
2022-10-15T09:14:41.192Z,96773.00
2022-10-15T09:17:22.263Z,96782.00
2022-10-15T09:19:53.806Z,96767.00
2022-10-15T09:22:27.490Z,96764.00
2022-10-15T09:24:55.167Z,96782.00
2022-10-15T09:27:37.382Z,96779.00
2022-10-15T09:30:28.512Z,96773.00
2022-10-15T09:33:27.513Z,96778.00
2022-10-15T09:36:11.792Z,96772.00
2022-10-15T09:39:21.509Z,96763.00
2022-10-15T09:42:16.244Z,96778.00
2022-10-15T09:44:46.472Z,96779.00
2022-10-15T09:47:35.305Z,96781.00
2022-10-15T09:50:06.093Z,96764.00
2022-10-15T09:53:03.473Z,96771.00
2022-10-15T09:55:45.682Z,96767.00
2022-10-15T09:58:29.043Z,96784.00
2022-10-15T10:01:06.259Z,96781.00
2022-10-15T10:03:39.846Z,96783.00
2022-10-15T10:06:10.907Z,96770.00
2022-10-15T10:08:57.425Z,96775.00
2022-10-15T10:11:27.003Z,96772.00
2022-10-15T10:13:59.451Z,96771.00
2022-10-15T10:16:28.749Z,96770.00
2022-10-15T10:19:13.632Z,96780.00
2022-10-15T10:21:43.340Z,96756.00
2022-10-15T10:24:31.851Z,96778.00
2022-10-15T10:27:00.327Z,96767.00
2022-10-15T10:29:33.882Z,96757.00
2022-10-15T10:32:26.720Z,96767.00
2022-10-15T10:34:54.990Z,96760.00
2022-10-15T10:37:22.860Z,96759.00
2022-10-15T10:39:57.595Z,96762.00
2022-10-15T10:42:34.660Z,96765.00
2022-10-15T10:45:24.047Z,96765.00
2022-10-15T10:47:50.911Z,96756.00
2022-10-15T10:50:34.700Z,96759.00
2022-10-15T10:53:24.663Z,96759.00
2022-10-15T10:55:55.463Z,96745.00
2022-10-15T10:58:31.967Z,96756.00
2022-10-15T11:00:58.922Z,96754.00
2022-10-15T11:03:36.861Z,96751.00
2022-10-15T11:06:37.271Z,96749.00
2022-10-15T11:09:55.383Z,96749.00
2022-10-15T11:12:57.983Z,96735.00
2022-10-15T11:15:49.696Z,96727.00
2022-10-15T11:18:53.105Z,96726.00
2022-10-15T11:21:44.960Z,96727.00
2022-10-15T11:25:06.044Z,96731.00
2022-10-15T11:28:10.767Z,96724.00
2022-10-15T11:31:10.692Z,96720.00
2022-10-15T11:34:22.495Z,96728.00
2022-10-15T11:37:08.176Z,96728.00
2022-10-15T11:40:09.529Z,96715.00
2022-10-15T11:43:15.698Z,96717.00
2022-10-15T11:46:15.215Z,96707.00
2022-10-15T11:48:55.538Z,96712.00
2022-10-15T11:51:36.823Z,96721.00
2022-10-15T11:54:44.688Z,96712.00
2022-10-15T11:57:27.738Z,96703.00
2022-10-15T12:00:47.700Z,96707.00
2022-10-15T12:03:43.708Z,96709.00
2022-10-15T12:06:37.140Z,96701.00
2022-10-15T12:09:38.688Z,96713.00
2022-10-15T12:12:49.801Z,96692.00
2022-10-15T12:16:10.674Z,96705.00
2022-10-15T12:19:22.676Z,96697.00
2022-10-15T12:22:06.572Z,96701.00
2022-10-15T12:24:59.671Z,96694.00
2022-10-15T12:27:43.926Z,96690.00
2022-10-15T12:30:35.706Z,96684.00
2022-10-15T12:33:52.700Z,96686.00
2022-10-15T12:36:33.523Z,96686.00
2022-10-15T12:39:52.995Z,96683.00
2022-10-15T12:42:40.067Z,96677.00
2022-10-15T12:45:52.684Z,96656.00
2022-10-15T12:48:42.911Z,96662.00
2022-10-15T12:51:22.775Z,96655.00
2022-10-15T12:54:39.705Z,96665.00
2022-10-15T12:57:40.765Z,96666.00
2022-10-15T13:00:57.778Z,96674.00
2022-10-15T13:03:52.900Z,96662.00
2022-10-15T13:06:40.026Z,96674.00
2022-10-15T13:09:40.716Z,96667.00
2022-10-15T13:12:28.838Z,96660.00
2022-10-15T13:15:07.449Z,96665.00
2022-10-15T13:17:39.597Z,96678.00
2022-10-15T13:20:29.618Z,96673.00
2022-10-15T13:23:31.414Z,96662.00
2022-10-15T13:26:34.516Z,96669.00
2022-10-15T13:29:02.276Z,96662.00
2022-10-15T13:31:35.062Z,96671.00
2022-10-15T13:34:22.181Z,96674.00
2022-10-15T13:36:50.001Z,96663.00
2022-10-15T13:39:39.055Z,96672.00
2022-10-15T13:42:23.819Z,96666.00
2022-10-15T13:45:15.502Z,96674.00
2022-10-15T13:47:52.373Z,96669.00
2022-10-15T13:50:24.678Z,96672.00
2022-10-15T13:53:01.922Z,96664.00
2022-10-15T13:55:36.339Z,96654.00
2022-10-15T13:58:30.129Z,96668.00
2022-10-15T14:01:04.915Z,96663.00
2022-10-15T14:03:36.657Z,96655.00
2022-10-15T14:06:18.797Z,96672.00
2022-10-15T14:08:49.076Z,96681.00
2022-10-15T14:11:17.947Z,96665.00
2022-10-15T14:13:59.515Z,96668.00
2022-10-15T14:16:41.320Z,96668.00
2022-10-15T14:19:19.940Z,96674.00
2022-10-15T14:21:52.439Z,96665.00
2022-10-15T14:24:23.915Z,96657.00
2022-10-15T14:26:53.954Z,96663.00
2022-10-15T14:29:38.866Z,96671.00
2022-10-15T14:32:21.178Z,96672.00
2022-10-15T14:34:50.574Z,96663.00
2022-10-15T14:37:42.485Z,96671.00
2022-10-15T14:40:09.680Z,96673.00
2022-10-15T14:43:07.788Z,96669.00
2022-10-15T14:45:52.999Z,96661.00
2022-10-15T14:48:40.542Z,96661.00
2022-10-15T14:51:23.794Z,96660.00
2022-10-15T14:53:53.040Z,96655.00
2022-10-15T14:56:24.100Z,96670.00
2022-10-15T14:59:01.239Z,96675.00
2022-10-15T15:01:30.303Z,96684.00
2022-10-15T15:03:57.194Z,96660.00
2022-10-15T15:06:24.248Z,96676.00
2022-10-15T15:08:51.298Z,96662.00
2022-10-15T15:11:25.269Z,96672.00
2022-10-15T15:13:53.675Z,96669.00
2022-10-15T15:16:20.565Z,96650.00
2022-10-15T15:18:48.586Z,96649.00
2022-10-15T15:21:23.311Z,96668.00
2022-10-15T15:23:50.852Z,96664.00
2022-10-15T15:26:17.867Z,96666.00
2022-10-15T15:28:44.953Z,96680.00
2022-10-15T15:31:18.037Z,96692.00
2022-10-15T15:33:45.428Z,96692.00
2022-10-15T15:36:18.942Z,96686.00
2022-10-15T15:38:50.481Z,96693.00
2022-10-15T15:41:23.772Z,96697.00
2022-10-15T15:43:52.001Z,96689.00
2022-10-15T15:46:19.186Z,96695.00
2022-10-15T15:48:46.021Z,96683.00
2022-10-15T15:51:31.827Z,96693.00
2022-10-15T15:53:59.285Z,96685.00
2022-10-15T15:56:26.287Z,96694.00
2022-10-15T15:58:53.185Z,96700.00
2022-10-15T16:01:20.952Z,96711.00
2022-10-15T16:03:48.164Z,96701.00
2022-10-15T16:06:15.134Z,96695.00
2022-10-15T16:08:42.137Z,96698.00
2022-10-15T16:11:09.271Z,96702.00
2022-10-15T16:13:36.461Z,96684.00
2022-10-15T16:16:03.871Z,96704.00
2022-10-15T16:18:30.827Z,96705.00
2022-10-15T16:20:57.898Z,96695.00
2022-10-15T16:23:24.835Z,96717.00
2022-10-15T16:25:52.145Z,96703.00
2022-10-15T16:28:19.079Z,96701.00
2022-10-15T16:30:45.940Z,96701.00
2022-10-15T16:33:14.431Z,96703.00
2022-10-15T16:35:41.434Z,96701.00
2022-10-15T16:38:09.247Z,96696.00
2022-10-15T16:40:36.095Z,96698.00
2022-10-15T16:43:03.344Z,96709.00
2022-10-15T16:45:30.212Z,96714.00
2022-10-15T16:47:57.173Z,96714.00
2022-10-15T16:50:24.087Z,96706.00
2022-10-15T16:52:51.558Z,96730.00
2022-10-15T16:55:18.401Z,96763.00
2022-10-15T16:57:45.198Z,96755.00
2022-10-15T17:00:12.491Z,96773.00
2022-10-15T17:02:39.303Z,96760.00
2022-10-15T17:05:07.270Z,96776.00
2022-10-15T17:07:34.143Z,96782.00
2022-10-15T17:10:01.488Z,96776.00
2022-10-15T17:12:28.692Z,96790.00
2022-10-15T17:14:55.682Z,96783.00
2022-10-15T17:17:22.576Z,96803.00
2022-10-15T17:19:49.551Z,96813.00
2022-10-15T17:22:16.500Z,96819.00
2022-10-15T17:24:43.740Z,96815.00
2022-10-15T17:27:10.610Z,96823.00
2022-10-15T17:29:37.652Z,96838.00
2022-10-15T17:32:04.819Z,96833.00
2022-10-15T17:34:31.770Z,96847.00
2022-10-15T17:36:58.642Z,96838.00
2022-10-15T17:39:25.560Z,96863.00
2022-10-15T17:41:52.642Z,96852.00
2022-10-15T17:44:20.276Z,96861.00
2022-10-15T17:49:22.882Z,96883.00
2022-10-15T17:51:49.854Z,96893.00
2022-10-15T17:54:17.008Z,96891.00
2022-10-15T17:56:44.733Z,96896.00
2022-10-15T17:59:12.708Z,96905.00
2022-10-15T18:01:57.732Z,96920.00
2022-10-15T18:04:25.160Z,96924.00
2022-10-15T18:06:52.225Z,96924.00
2022-10-15T18:09:25.431Z,96938.00
2022-10-15T18:11:56.356Z,96936.00
2022-10-15T18:14:29.280Z,96936.00
2022-10-15T18:16:56.718Z,96951.00
2022-10-15T18:19:25.670Z,96937.00
2022-10-15T18:21:52.837Z,96948.00
2022-10-15T18:24:21.913Z,96963.00
2022-10-15T18:26:52.952Z,96956.00
2022-10-15T18:29:20.372Z,96961.00
2022-10-15T18:31:47.511Z,96952.00
2022-10-15T18:34:14.705Z,96954.00
2022-10-15T18:36:43.370Z,96964.00
2022-10-15T18:39:10.927Z,96959.00
2022-10-15T18:41:39.820Z,96945.00
2022-10-15T18:44:14.715Z,96956.00
2022-10-15T18:46:44.652Z,96968.00
2022-10-15T18:49:14.231Z,96967.00
2022-10-15T18:51:41.825Z,96954.00
2022-10-15T18:54:10.676Z,96947.00
2022-10-15T18:56:37.603Z,96945.00
2022-10-15T18:59:06.616Z,96942.00
2022-10-15T19:01:41.826Z,96948.00
2022-10-15T19:04:17.297Z,96960.00
2022-10-15T19:06:51.099Z,96950.00
2022-10-15T19:09:23.383Z,96960.00
2022-10-15T19:11:53.666Z,96963.00
2022-10-15T19:14:22.956Z,96978.00
2022-10-15T19:16:51.089Z,96974.00
2022-10-15T19:19:21.495Z,96969.00
2022-10-15T19:21:50.020Z,96970.00
2022-10-15T19:24:19.906Z,96961.00
2022-10-15T19:26:47.543Z,96959.00
2022-10-15T19:29:14.799Z,96958.00
2022-10-15T19:31:44.887Z,96967.00
2022-10-15T19:34:13.148Z,96964.00
2022-10-15T19:36:46.489Z,96996.00
2022-10-15T19:39:18.615Z,96974.00
2022-10-15T19:41:46.465Z,96988.00
2022-10-15T19:44:17.058Z,96983.00
2022-10-15T19:46:46.548Z,96974.00
2022-10-15T19:49:14.490Z,96984.00
2022-10-15T19:51:41.556Z,96977.00
2022-10-15T19:54:08.898Z,96967.00
2022-10-15T19:56:35.885Z,96973.00
2022-10-15T19:59:08.129Z,96979.00
2022-10-15T20:01:36.340Z,96965.00
2022-10-15T20:04:06.810Z,96961.00
2022-10-15T20:06:36.448Z,96968.00
2022-10-15T20:09:04.523Z,96988.00
2022-10-15T20:11:31.648Z,96986.00
2022-10-15T20:13:59.877Z,96984.00
2022-10-15T20:16:30.038Z,96970.00
2022-10-15T20:19:02.980Z,96989.00
2022-10-15T20:21:30.433Z,96987.00
2022-10-15T20:23:57.693Z,97004.00
2022-10-15T20:26:24.629Z,97008.00
2022-10-15T20:28:51.653Z,97009.00
2022-10-15T20:31:21.342Z,97023.00
2022-10-15T20:33:49.146Z,97014.00
2022-10-15T20:36:22.614Z,97028.00
2022-10-15T20:38:51.580Z,97030.00
2022-10-15T20:41:19.537Z,97046.00
2022-10-15T20:43:53.763Z,97046.00
2022-10-15T20:46:45.544Z,97009.00
2022-10-15T20:49:19.387Z,97021.00
2022-10-15T20:51:46.388Z,97012.00
2022-10-15T20:54:15.305Z,97027.00
2022-10-15T20:56:42.596Z,97041.00
2022-10-15T20:59:09.475Z,97033.00
2022-10-15T21:01:36.690Z,97045.00
2022-10-15T21:04:05.321Z,97051.00
2022-10-15T21:06:32.484Z,97063.00
2022-10-15T21:08:59.400Z,97066.00
2022-10-15T21:11:26.545Z,97053.00
2022-10-15T21:13:53.466Z,97081.00
2022-10-15T21:16:23.352Z,97068.00
2022-10-15T21:18:53.123Z,97077.00
2022-10-15T21:21:19.981Z,97066.00
2022-10-15T21:23:46.823Z,97062.00
2022-10-15T21:26:17.482Z,97073.00
2022-10-15T21:28:45.451Z,97078.00
2022-10-15T21:31:16.585Z,97096.00
2022-10-15T21:33:44.401Z,97095.00
2022-10-15T21:36:24.305Z,97091.00
2022-10-15T21:38:56.790Z,97108.00
2022-10-15T21:41:26.278Z,97081.00
2022-10-15T21:43:53.433Z,97097.00
2022-10-15T21:46:20.691Z,97104.00
2022-10-15T21:48:47.853Z,97089.00
2022-10-15T21:51:19.412Z,97088.00
2022-10-15T21:53:47.330Z,97090.00
2022-10-15T21:56:14.665Z,97091.00
2022-10-15T21:58:42.997Z,97079.00
2022-10-15T22:01:21.719Z,97086.00
2022-10-15T22:03:51.834Z,97084.00
2022-10-15T22:06:20.632Z,97089.00
2022-10-15T22:08:47.907Z,97086.00
2022-10-15T22:11:28.216Z,97081.00
2022-10-15T22:13:58.720Z,97084.00
2022-10-15T22:16:32.297Z,97088.00
2022-10-15T22:18:59.273Z,97084.00
2022-10-15T22:21:30.076Z,97104.00
2022-10-15T22:24:04.071Z,97079.00
2022-10-15T22:26:35.605Z,97102.00
2022-10-15T22:29:05.554Z,97106.00
2022-10-15T22:31:33.460Z,97125.00
2022-10-15T22:34:00.542Z,97112.00
2022-10-15T22:36:31.590Z,97103.00
2022-10-15T22:39:05.405Z,97105.00
2022-10-15T22:41:39.933Z,97119.00
2022-10-15T22:44:08.977Z,97090.00
2022-10-15T22:46:38.683Z,97090.00
2022-10-15T22:49:10.035Z,97107.00
2022-10-15T22:51:36.900Z,97093.00
2022-10-15T22:54:04.768Z,97083.00
2022-10-15T22:56:32.237Z,97073.00
2022-10-15T22:58:59.724Z,97080.00
2022-10-15T23:01:30.646Z,97087.00
2022-10-15T23:04:01.865Z,97090.00
2022-10-15T23:06:31.189Z,97106.00
2022-10-15T23:08:58.786Z,97105.00
2022-10-15T23:11:30.325Z,97088.00
2022-10-15T23:14:01.979Z,97115.00
2022-10-15T23:16:33.848Z,97078.00
2022-10-15T23:19:04.755Z,97126.00
2022-10-15T23:21:59.843Z,97118.00
2022-10-15T23:24:27.550Z,97112.00
2022-10-15T23:26:55.180Z,97101.00
2022-10-15T23:29:25.505Z,97117.00
2022-10-15T23:31:54.618Z,97113.00
2022-10-15T23:34:26.465Z,97119.00
2022-10-15T23:36:53.575Z,97125.00
2022-10-15T23:39:24.353Z,97119.00
2022-10-15T23:41:51.264Z,97104.00
2022-10-15T23:44:18.591Z,97112.00
2022-10-15T23:46:46.290Z,97109.00
2022-10-15T23:49:13.944Z,97124.00
2022-10-15T23:51:40.939Z,97121.00
2022-10-15T23:54:18.047Z,97099.00
2022-10-15T23:56:47.004Z,97117.00
2022-10-15T23:59:14.730Z,97115.00
